sensor_id;sensor_type;location;lat;lon;timestamp;temperature;humidity
2463;DHT22;1243;54.298;10.172;2023-07-20T00:01:13;14.90;1.00
2463;DHT22;1243;54.298;10.172;2023-07-20T00:03:39;14.90;1.00
2463;DHT22;1243;54.298;10.172;2023-07-20T00:06:05;14.90;1.00
2463;DHT22;1243;54.298;10.172;2023-07-20T00:08:31;14.90;1.00
2463;DHT22;1243;54.298;10.172;2023-07-20T00:10:56;14.90;1.00
2463;DHT22;1243;54.298;10.172;2023-07-20T00:13:22;14.90;1.00
2463;DHT22;1243;54.298;10.172;2023-07-20T00:15:48;14.90;1.00
2463;DHT22;1243;54.298;10.172;2023-07-20T00:18:14;14.80;1.00
2463;DHT22;1243;54.298;10.172;2023-07-20T00:20:40;14.80;1.00
2463;DHT22;1243;54.298;10.172;2023-07-20T00:23:06;14.70;1.00
2463;DHT22;1243;54.298;10.172;2023-07-20T00:25:32;14.70;1.00
2463;DHT22;1243;54.298;10.172;2023-07-20T00:27:58;14.60;1.00
2463;DHT22;1243;54.298;10.172;2023-07-20T00:30:24;14.60;1.00
2463;DHT22;1243;54.298;10.172;2023-07-20T00:32:50;14.50;1.00
2463;DHT22;1243;54.298;10.172;2023-07-20T00:35:15;14.50;1.00
2463;DHT22;1243;54.298;10.172;2023-07-20T00:37:41;14.50;1.00
2463;DHT22;1243;54.298;10.172;2023-07-20T00:40:07;14.40;1.00
2463;DHT22;1243;54.298;10.172;2023-07-20T00:42:33;14.40;1.00
2463;DHT22;1243;54.298;10.172;2023-07-20T00:44:59;14.40;1.00
2463;DHT22;1243;54.298;10.172;2023-07-20T00:47:26;14.40;1.00
2463;DHT22;1243;54.298;10.172;2023-07-20T00:49:52;14.30;1.00
2463;DHT22;1243;54.298;10.172;2023-07-20T00:52:20;14.30;1.00
2463;DHT22;1243;54.298;10.172;2023-07-20T00:54:47;14.30;1.00
2463;DHT22;1243;54.298;10.172;2023-07-20T00:57:15;14.30;1.00
2463;DHT22;1243;54.298;10.172;2023-07-20T00:59:41;14.30;1.00
2463;DHT22;1243;54.298;10.172;2023-07-20T01:02:07;14.20;1.00
2463;DHT22;1243;54.298;10.172;2023-07-20T01:04:34;14.10;1.00
2463;DHT22;1243;54.298;10.172;2023-07-20T01:07:02;14.10;1.00
2463;DHT22;1243;54.298;10.172;2023-07-20T01:09:58;14.10;1.00
2463;DHT22;1243;54.298;10.172;2023-07-20T01:12:30;14.00;1.00
2463;DHT22;1243;54.298;10.172;2023-07-20T01:14:57;14.00;1.00
2463;DHT22;1243;54.298;10.172;2023-07-20T01:17:23;14.00;1.00
2463;DHT22;1243;54.298;10.172;2023-07-20T01:19:49;14.00;1.00
2463;DHT22;1243;54.298;10.172;2023-07-20T01:25:19;14.00;1.00
2463;DHT22;1243;54.298;10.172;2023-07-20T01:33:19;13.90;1.00
2463;DHT22;1243;54.298;10.172;2023-07-20T01:35:51;13.90;1.00
2463;DHT22;1243;54.298;10.172;2023-07-20T01:38:18;13.90;1.00
2463;DHT22;1243;54.298;10.172;2023-07-20T01:40:44;13.90;1.00
2463;DHT22;1243;54.298;10.172;2023-07-20T01:43:11;13.80;1.00
2463;DHT22;1243;54.298;10.172;2023-07-20T01:45:37;13.90;1.00
2463;DHT22;1243;54.298;10.172;2023-07-20T01:48:03;13.90;1.00
2463;DHT22;1243;54.298;10.172;2023-07-20T01:50:29;13.80;1.00
2463;DHT22;1243;54.298;10.172;2023-07-20T01:52:55;13.80;1.00
2463;DHT22;1243;54.298;10.172;2023-07-20T01:55:20;13.80;1.00
2463;DHT22;1243;54.298;10.172;2023-07-20T01:57:46;13.70;1.00
2463;DHT22;1243;54.298;10.172;2023-07-20T02:00:12;13.70;1.00
2463;DHT22;1243;54.298;10.172;2023-07-20T02:02:38;13.60;1.00
2463;DHT22;1243;54.298;10.172;2023-07-20T02:05:04;13.60;1.00
2463;DHT22;1243;54.298;10.172;2023-07-20T02:07:29;13.60;1.00
2463;DHT22;1243;54.298;10.172;2023-07-20T02:09:55;13.60;1.00
2463;DHT22;1243;54.298;10.172;2023-07-20T02:12:21;13.50;1.00
2463;DHT22;1243;54.298;10.172;2023-07-20T02:14:46;13.60;1.00
2463;DHT22;1243;54.298;10.172;2023-07-20T02:17:13;13.50;1.00
2463;DHT22;1243;54.298;10.172;2023-07-20T02:19:40;13.50;1.00
2463;DHT22;1243;54.298;10.172;2023-07-20T02:22:06;13.40;1.00
2463;DHT22;1243;54.298;10.172;2023-07-20T02:24:33;13.40;1.00
2463;DHT22;1243;54.298;10.172;2023-07-20T02:26:59;13.30;1.00
2463;DHT22;1243;54.298;10.172;2023-07-20T02:29:25;13.30;1.00
2463;DHT22;1243;54.298;10.172;2023-07-20T02:31:50;13.30;1.00
2463;DHT22;1243;54.298;10.172;2023-07-20T02:34:16;13.30;1.00
2463;DHT22;1243;54.298;10.172;2023-07-20T02:36:42;13.30;1.00
2463;DHT22;1243;54.298;10.172;2023-07-20T02:39:08;13.30;1.00
2463;DHT22;1243;54.298;10.172;2023-07-20T02:41:34;13.40;1.00
2463;DHT22;1243;54.298;10.172;2023-07-20T02:44:00;13.40;1.00
2463;DHT22;1243;54.298;10.172;2023-07-20T02:46:26;13.50;1.00
2463;DHT22;1243;54.298;10.172;2023-07-20T02:48:52;13.50;1.00
2463;DHT22;1243;54.298;10.172;2023-07-20T02:51:18;13.50;1.00
2463;DHT22;1243;54.298;10.172;2023-07-20T02:53:44;13.60;1.00
2463;DHT22;1243;54.298;10.172;2023-07-20T02:56:09;13.60;1.00
2463;DHT22;1243;54.298;10.172;2023-07-20T02:58:35;13.60;1.00
2463;DHT22;1243;54.298;10.172;2023-07-20T03:01:04;13.60;1.00
2463;DHT22;1243;54.298;10.172;2023-07-20T03:03:29;13.60;1.00
2463;DHT22;1243;54.298;10.172;2023-07-20T03:05:55;13.60;1.00
2463;DHT22;1243;54.298;10.172;2023-07-20T03:08:22;13.50;1.00
2463;DHT22;1243;54.298;10.172;2023-07-20T03:10:48;13.50;1.00
2463;DHT22;1243;54.298;10.172;2023-07-20T03:13:14;13.40;1.00
2463;DHT22;1243;54.298;10.172;2023-07-20T03:15:41;13.40;1.00
2463;DHT22;1243;54.298;10.172;2023-07-20T03:18:07;13.40;1.00
2463;DHT22;1243;54.298;10.172;2023-07-20T03:20:33;13.40;1.00
2463;DHT22;1243;54.298;10.172;2023-07-20T03:23:00;13.40;1.00
2463;DHT22;1243;54.298;10.172;2023-07-20T03:25:26;13.40;1.00
2463;DHT22;1243;54.298;10.172;2023-07-20T03:27:51;13.40;1.00
2463;DHT22;1243;54.298;10.172;2023-07-20T03:30:17;13.40;1.00
2463;DHT22;1243;54.298;10.172;2023-07-20T03:32:43;13.40;1.00
2463;DHT22;1243;54.298;10.172;2023-07-20T03:35:09;13.40;1.00
2463;DHT22;1243;54.298;10.172;2023-07-20T03:37:34;13.40;1.00
2463;DHT22;1243;54.298;10.172;2023-07-20T03:40:02;13.40;1.00
2463;DHT22;1243;54.298;10.172;2023-07-20T03:42:28;13.50;1.00
2463;DHT22;1243;54.298;10.172;2023-07-20T03:44:54;13.50;1.00
2463;DHT22;1243;54.298;10.172;2023-07-20T03:47:19;13.60;1.00
2463;DHT22;1243;54.298;10.172;2023-07-20T03:49:45;13.60;1.00
2463;DHT22;1243;54.298;10.172;2023-07-20T03:52:11;13.60;1.00
2463;DHT22;1243;54.298;10.172;2023-07-20T03:54:36;13.60;1.00
2463;DHT22;1243;54.298;10.172;2023-07-20T03:57:02;13.50;1.00
2463;DHT22;1243;54.298;10.172;2023-07-20T03:59:28;13.50;1.00
2463;DHT22;1243;54.298;10.172;2023-07-20T04:01:54;13.60;1.00
2463;DHT22;1243;54.298;10.172;2023-07-20T04:04:19;13.60;1.00
2463;DHT22;1243;54.298;10.172;2023-07-20T04:06:45;13.70;1.00
2463;DHT22;1243;54.298;10.172;2023-07-20T04:09:12;13.70;1.00
2463;DHT22;1243;54.298;10.172;2023-07-20T04:11:37;13.70;1.00
2463;DHT22;1243;54.298;10.172;2023-07-20T04:14:04;13.70;1.00
2463;DHT22;1243;54.298;10.172;2023-07-20T04:16:29;13.70;1.00
2463;DHT22;1243;54.298;10.172;2023-07-20T04:18:56;13.80;1.00
2463;DHT22;1243;54.298;10.172;2023-07-20T04:21:22;13.70;1.00
2463;DHT22;1243;54.298;10.172;2023-07-20T04:23:47;13.80;1.00
2463;DHT22;1243;54.298;10.172;2023-07-20T04:26:13;13.80;1.00
2463;DHT22;1243;54.298;10.172;2023-07-20T04:28:41;13.80;1.00
2463;DHT22;1243;54.298;10.172;2023-07-20T04:31:14;13.80;1.00
2463;DHT22;1243;54.298;10.172;2023-07-20T04:33:40;13.70;1.00
2463;DHT22;1243;54.298;10.172;2023-07-20T04:36:06;13.60;1.00
2463;DHT22;1243;54.298;10.172;2023-07-20T04:38:32;13.70;1.00
2463;DHT22;1243;54.298;10.172;2023-07-20T04:40:58;13.60;1.00
2463;DHT22;1243;54.298;10.172;2023-07-20T04:43:24;13.60;1.00
2463;DHT22;1243;54.298;10.172;2023-07-20T04:45:49;13.70;1.00
2463;DHT22;1243;54.298;10.172;2023-07-20T04:48:16;13.70;1.00
2463;DHT22;1243;54.298;10.172;2023-07-20T04:50:43;13.70;1.00
2463;DHT22;1243;54.298;10.172;2023-07-20T04:53:10;13.70;1.00
2463;DHT22;1243;54.298;10.172;2023-07-20T04:55:37;13.80;1.00
2463;DHT22;1243;54.298;10.172;2023-07-20T04:58:04;13.70;1.00
2463;DHT22;1243;54.298;10.172;2023-07-20T05:00:30;13.70;1.00
2463;DHT22;1243;54.298;10.172;2023-07-20T05:02:56;13.80;1.00
2463;DHT22;1243;54.298;10.172;2023-07-20T05:05:22;13.90;1.00
2463;DHT22;1243;54.298;10.172;2023-07-20T05:07:48;14.00;1.00
2463;DHT22;1243;54.298;10.172;2023-07-20T05:10:13;14.10;1.00
2463;DHT22;1243;54.298;10.172;2023-07-20T05:12:39;14.20;1.00
2463;DHT22;1243;54.298;10.172;2023-07-20T05:15:05;14.20;1.00
2463;DHT22;1243;54.298;10.172;2023-07-20T05:17:31;14.20;1.00
2463;DHT22;1243;54.298;10.172;2023-07-20T05:19:56;14.10;1.00
2463;DHT22;1243;54.298;10.172;2023-07-20T05:22:22;14.20;1.00
2463;DHT22;1243;54.298;10.172;2023-07-20T05:24:50;14.30;1.00
2463;DHT22;1243;54.298;10.172;2023-07-20T05:27:15;14.30;1.00
2463;DHT22;1243;54.298;10.172;2023-07-20T05:29:45;14.40;1.00
2463;DHT22;1243;54.298;10.172;2023-07-20T05:32:11;14.30;1.00
2463;DHT22;1243;54.298;10.172;2023-07-20T05:34:37;14.30;1.00
2463;DHT22;1243;54.298;10.172;2023-07-20T05:37:03;14.30;1.00
2463;DHT22;1243;54.298;10.172;2023-07-20T05:39:28;14.40;1.00
2463;DHT22;1243;54.298;10.172;2023-07-20T05:41:54;14.40;1.00
2463;DHT22;1243;54.298;10.172;2023-07-20T05:44:20;14.50;1.00
2463;DHT22;1243;54.298;10.172;2023-07-20T05:46:45;14.60;1.00
2463;DHT22;1243;54.298;10.172;2023-07-20T05:49:11;14.70;1.00
2463;DHT22;1243;54.298;10.172;2023-07-20T05:51:37;14.80;1.00
2463;DHT22;1243;54.298;10.172;2023-07-20T05:54:02;14.80;1.00
2463;DHT22;1243;54.298;10.172;2023-07-20T05:56:28;14.80;1.00
2463;DHT22;1243;54.298;10.172;2023-07-20T05:58:54;14.80;1.00
2463;DHT22;1243;54.298;10.172;2023-07-20T06:01:19;14.80;1.00
2463;DHT22;1243;54.298;10.172;2023-07-20T06:03:45;14.80;1.00
2463;DHT22;1243;54.298;10.172;2023-07-20T06:06:11;14.90;1.00
2463;DHT22;1243;54.298;10.172;2023-07-20T06:08:37;14.90;1.00
2463;DHT22;1243;54.298;10.172;2023-07-20T06:11:03;15.00;1.00
2463;DHT22;1243;54.298;10.172;2023-07-20T06:13:29;15.00;1.00
2463;DHT22;1243;54.298;10.172;2023-07-20T06:15:55;15.10;1.00
2463;DHT22;1243;54.298;10.172;2023-07-20T06:18:22;15.10;1.00
2463;DHT22;1243;54.298;10.172;2023-07-20T06:20:52;15.20;1.00
2463;DHT22;1243;54.298;10.172;2023-07-20T06:23:19;15.10;1.00
2463;DHT22;1243;54.298;10.172;2023-07-20T06:25:45;15.10;1.00
2463;DHT22;1243;54.298;10.172;2023-07-20T06:28:11;15.30;1.00
2463;DHT22;1243;54.298;10.172;2023-07-20T06:30:37;15.40;1.00
2463;DHT22;1243;54.298;10.172;2023-07-20T06:33:02;15.40;1.00
2463;DHT22;1243;54.298;10.172;2023-07-20T06:35:28;15.40;1.00
2463;DHT22;1243;54.298;10.172;2023-07-20T06:37:54;15.60;1.00
2463;DHT22;1243;54.298;10.172;2023-07-20T06:40:20;15.70;1.00
2463;DHT22;1243;54.298;10.172;2023-07-20T06:42:46;15.80;1.00
2463;DHT22;1243;54.298;10.172;2023-07-20T06:45:11;15.90;1.00
2463;DHT22;1243;54.298;10.172;2023-07-20T06:47:40;15.90;1.00
2463;DHT22;1243;54.298;10.172;2023-07-20T06:50:07;15.90;1.00
2463;DHT22;1243;54.298;10.172;2023-07-20T06:52:33;15.90;1.00
2463;DHT22;1243;54.298;10.172;2023-07-20T06:54:59;15.90;1.00
2463;DHT22;1243;54.298;10.172;2023-07-20T06:57:25;16.00;1.00
2463;DHT22;1243;54.298;10.172;2023-07-20T06:59:51;16.10;1.00
2463;DHT22;1243;54.298;10.172;2023-07-20T07:02:17;16.20;1.00
2463;DHT22;1243;54.298;10.172;2023-07-20T07:04:43;16.40;1.00
2463;DHT22;1243;54.298;10.172;2023-07-20T07:07:09;16.60;1.00
2463;DHT22;1243;54.298;10.172;2023-07-20T07:09:35;16.70;1.00
2463;DHT22;1243;54.298;10.172;2023-07-20T07:12:01;16.80;99.90
2463;DHT22;1243;54.298;10.172;2023-07-20T07:14:26;16.80;99.90
2463;DHT22;1243;54.298;10.172;2023-07-20T07:16:52;16.90;99.90
2463;DHT22;1243;54.298;10.172;2023-07-20T07:19:18;16.90;99.90
2463;DHT22;1243;54.298;10.172;2023-07-20T07:21:44;17.00;99.90
2463;DHT22;1243;54.298;10.172;2023-07-20T07:24:10;17.00;99.90
2463;DHT22;1243;54.298;10.172;2023-07-20T07:26:36;16.90;99.90
2463;DHT22;1243;54.298;10.172;2023-07-20T07:29:03;16.80;99.90
2463;DHT22;1243;54.298;10.172;2023-07-20T07:31:29;16.70;99.90
2463;DHT22;1243;54.298;10.172;2023-07-20T07:33:56;16.80;99.90
2463;DHT22;1243;54.298;10.172;2023-07-20T07:36:21;16.70;99.90
2463;DHT22;1243;54.298;10.172;2023-07-20T07:38:48;16.50;99.90
2463;DHT22;1243;54.298;10.172;2023-07-20T07:41:14;16.50;99.90
2463;DHT22;1243;54.298;10.172;2023-07-20T07:43:39;16.40;99.90
2463;DHT22;1243;54.298;10.172;2023-07-20T07:46:05;16.30;99.90
2463;DHT22;1243;54.298;10.172;2023-07-20T07:48:31;16.50;99.90
2463;DHT22;1243;54.298;10.172;2023-07-20T07:50:56;16.60;99.90
2463;DHT22;1243;54.298;10.172;2023-07-20T07:53:22;16.90;99.90
2463;DHT22;1243;54.298;10.172;2023-07-20T07:55:49;17.00;99.90
2463;DHT22;1243;54.298;10.172;2023-07-20T07:58:15;17.20;99.90
2463;DHT22;1243;54.298;10.172;2023-07-20T08:00:40;17.20;99.90
2463;DHT22;1243;54.298;10.172;2023-07-20T08:03:06;17.40;99.90
2463;DHT22;1243;54.298;10.172;2023-07-20T08:05:33;17.40;99.90
2463;DHT22;1243;54.298;10.172;2023-07-20T08:07:59;17.40;99.90
2463;DHT22;1243;54.298;10.172;2023-07-20T08:10:24;17.40;99.90
2463;DHT22;1243;54.298;10.172;2023-07-20T08:12:50;17.20;99.90
2463;DHT22;1243;54.298;10.172;2023-07-20T08:15:16;17.10;99.90
2463;DHT22;1243;54.298;10.172;2023-07-20T08:17:42;17.20;99.90
2463;DHT22;1243;54.298;10.172;2023-07-20T08:20:13;17.20;99.90
2463;DHT22;1243;54.298;10.172;2023-07-20T08:22:39;17.50;99.90
2463;DHT22;1243;54.298;10.172;2023-07-20T08:25:06;17.70;99.90
2463;DHT22;1243;54.298;10.172;2023-07-20T08:27:32;17.80;99.90
2463;DHT22;1243;54.298;10.172;2023-07-20T08:29:57;18.00;99.90
2463;DHT22;1243;54.298;10.172;2023-07-20T08:32:23;17.90;99.90
2463;DHT22;1243;54.298;10.172;2023-07-20T08:34:49;17.70;99.90
2463;DHT22;1243;54.298;10.172;2023-07-20T08:37:14;17.40;99.90
2463;DHT22;1243;54.298;10.172;2023-07-20T08:39:40;17.30;99.90
2463;DHT22;1243;54.298;10.172;2023-07-20T08:42:06;17.50;99.90
2463;DHT22;1243;54.298;10.172;2023-07-20T08:44:36;17.80;99.90
2463;DHT22;1243;54.298;10.172;2023-07-20T08:47:04;18.00;99.90
2463;DHT22;1243;54.298;10.172;2023-07-20T08:49:35;18.00;99.90
2463;DHT22;1243;54.298;10.172;2023-07-20T08:52:00;17.90;99.90
2463;DHT22;1243;54.298;10.172;2023-07-20T08:54:31;17.80;99.90
2463;DHT22;1243;54.298;10.172;2023-07-20T08:57:04;17.70;99.90
2463;DHT22;1243;54.298;10.172;2023-07-20T08:59:30;17.70;99.90
2463;DHT22;1243;54.298;10.172;2023-07-20T09:02:00;17.90;99.90
2463;DHT22;1243;54.298;10.172;2023-07-20T09:04:26;18.20;99.90
2463;DHT22;1243;54.298;10.172;2023-07-20T09:06:51;18.40;99.90
2463;DHT22;1243;54.298;10.172;2023-07-20T09:09:17;18.40;99.90
2463;DHT22;1243;54.298;10.172;2023-07-20T09:11:47;18.60;99.90
2463;DHT22;1243;54.298;10.172;2023-07-20T09:14:12;18.70;99.90
2463;DHT22;1243;54.298;10.172;2023-07-20T09:16:54;18.80;99.90
2463;DHT22;1243;54.298;10.172;2023-07-20T09:19:21;18.90;99.90
2463;DHT22;1243;54.298;10.172;2023-07-20T09:21:51;18.90;99.90
2463;DHT22;1243;54.298;10.172;2023-07-20T09:24:18;19.00;99.90
2463;DHT22;1243;54.298;10.172;2023-07-20T09:26:45;19.30;99.90
2463;DHT22;1243;54.298;10.172;2023-07-20T09:29:14;19.50;99.90
2463;DHT22;1243;54.298;10.172;2023-07-20T09:31:40;19.70;99.90
2463;DHT22;1243;54.298;10.172;2023-07-20T09:34:06;19.80;99.90
2463;DHT22;1243;54.298;10.172;2023-07-20T09:36:38;19.70;99.90
2463;DHT22;1243;54.298;10.172;2023-07-20T09:39:04;19.50;99.90
2463;DHT22;1243;54.298;10.172;2023-07-20T09:41:31;19.30;99.90
2463;DHT22;1243;54.298;10.172;2023-07-20T09:44:04;19.40;99.90
2463;DHT22;1243;54.298;10.172;2023-07-20T09:46:44;19.30;99.90
2463;DHT22;1243;54.298;10.172;2023-07-20T09:49:10;19.00;99.90
2463;DHT22;1243;54.298;10.172;2023-07-20T09:51:36;19.00;99.90
2463;DHT22;1243;54.298;10.172;2023-07-20T09:54:03;19.20;99.90
2463;DHT22;1243;54.298;10.172;2023-07-20T09:56:30;19.50;99.90
2463;DHT22;1243;54.298;10.172;2023-07-20T09:58:56;20.10;99.90
2463;DHT22;1243;54.298;10.172;2023-07-20T10:01:23;21.00;99.90
2463;DHT22;1243;54.298;10.172;2023-07-20T10:03:52;21.50;99.90
2463;DHT22;1243;54.298;10.172;2023-07-20T10:06:23;21.20;99.90
2463;DHT22;1243;54.298;10.172;2023-07-20T10:08:53;20.70;99.90
2463;DHT22;1243;54.298;10.172;2023-07-20T10:11:22;20.30;99.90
2463;DHT22;1243;54.298;10.172;2023-07-20T10:13:51;20.50;99.90
2463;DHT22;1243;54.298;10.172;2023-07-20T10:16:28;21.10;99.90
2463;DHT22;1243;54.298;10.172;2023-07-20T10:21:56;22.30;99.90
2463;DHT22;1243;54.298;10.172;2023-07-20T10:24:23;22.60;99.90
2463;DHT22;1243;54.298;10.172;2023-07-20T10:26:50;23.20;99.90
2463;DHT22;1243;54.298;10.172;2023-07-20T10:29:16;23.30;99.90
2463;DHT22;1243;54.298;10.172;2023-07-20T10:31:43;22.70;99.90
2463;DHT22;1243;54.298;10.172;2023-07-20T10:34:09;22.30;99.90
2463;DHT22;1243;54.298;10.172;2023-07-20T10:36:44;21.70;99.90
2463;DHT22;1243;54.298;10.172;2023-07-20T10:39:27;21.00;99.90
2463;DHT22;1243;54.298;10.172;2023-07-20T10:42:08;20.10;99.90
2463;DHT22;1243;54.298;10.172;2023-07-20T10:44:37;19.20;99.90
2463;DHT22;1243;54.298;10.172;2023-07-20T10:47:08;18.90;99.90
2463;DHT22;1243;54.298;10.172;2023-07-20T10:49:35;18.90;99.90
2463;DHT22;1243;54.298;10.172;2023-07-20T10:52:05;19.00;99.90
2463;DHT22;1243;54.298;10.172;2023-07-20T10:56:58;20.40;99.90
2463;DHT22;1243;54.298;10.172;2023-07-20T10:59:47;21.30;99.90
2463;DHT22;1243;54.298;10.172;2023-07-20T11:02:18;22.20;99.90
2463;DHT22;1243;54.298;10.172;2023-07-20T11:04:46;22.80;99.90
2463;DHT22;1243;54.298;10.172;2023-07-20T11:07:16;23.30;99.90
2463;DHT22;1243;54.298;10.172;2023-07-20T11:09:43;23.70;99.90
2463;DHT22;1243;54.298;10.172;2023-07-20T11:12:12;24.00;99.90
2463;DHT22;1243;54.298;10.172;2023-07-20T11:14:57;23.70;99.90
2463;DHT22;1243;54.298;10.172;2023-07-20T11:17:33;22.80;99.90
2463;DHT22;1243;54.298;10.172;2023-07-20T11:20:00;21.60;99.90
2463;DHT22;1243;54.298;10.172;2023-07-20T11:22:27;20.90;99.90
2463;DHT22;1243;54.298;10.172;2023-07-20T11:24:56;21.00;99.90
2463;DHT22;1243;54.298;10.172;2023-07-20T11:27:22;21.50;99.90
2463;DHT22;1243;54.298;10.172;2023-07-20T11:29:48;22.40;99.90
2463;DHT22;1243;54.298;10.172;2023-07-20T11:32:24;23.30;99.90
2463;DHT22;1243;54.298;10.172;2023-07-20T11:34:50;24.10;99.90
2463;DHT22;1243;54.298;10.172;2023-07-20T11:37:19;24.70;99.90
2463;DHT22;1243;54.298;10.172;2023-07-20T11:39:45;25.10;99.90
2463;DHT22;1243;54.298;10.172;2023-07-20T11:42:11;25.30;99.90
2463;DHT22;1243;54.298;10.172;2023-07-20T11:44:38;25.20;99.90
2463;DHT22;1243;54.298;10.172;2023-07-20T11:47:08;24.70;99.90
2463;DHT22;1243;54.298;10.172;2023-07-20T11:49:39;24.70;99.90
2463;DHT22;1243;54.298;10.172;2023-07-20T11:52:06;24.80;99.90
2463;DHT22;1243;54.298;10.172;2023-07-20T11:54:34;25.50;99.90
2463;DHT22;1243;54.298;10.172;2023-07-20T11:57:03;26.10;99.90
2463;DHT22;1243;54.298;10.172;2023-07-20T11:59:30;26.60;99.90
2463;DHT22;1243;54.298;10.172;2023-07-20T12:01:57;26.80;99.90
2463;DHT22;1243;54.298;10.172;2023-07-20T12:04:23;26.40;99.90
2463;DHT22;1243;54.298;10.172;2023-07-20T12:06:49;25.70;99.90
2463;DHT22;1243;54.298;10.172;2023-07-20T12:09:16;25.60;99.90
2463;DHT22;1243;54.298;10.172;2023-07-20T12:11:44;25.80;99.90
2463;DHT22;1243;54.298;10.172;2023-07-20T12:14:12;26.50;99.90
2463;DHT22;1243;54.298;10.172;2023-07-20T12:16:38;26.70;99.90
2463;DHT22;1243;54.298;10.172;2023-07-20T12:19:09;25.90;99.90
2463;DHT22;1243;54.298;10.172;2023-07-20T12:21:37;25.10;99.90
2463;DHT22;1243;54.298;10.172;2023-07-20T12:24:04;24.20;99.90
2463;DHT22;1243;54.298;10.172;2023-07-20T12:26:31;23.50;99.90
2463;DHT22;1243;54.298;10.172;2023-07-20T12:28:57;23.80;99.90
2463;DHT22;1243;54.298;10.172;2023-07-20T12:31:23;24.60;99.90
2463;DHT22;1243;54.298;10.172;2023-07-20T12:33:50;25.40;99.90
2463;DHT22;1243;54.298;10.172;2023-07-20T12:36:17;25.50;99.90
2463;DHT22;1243;54.298;10.172;2023-07-20T12:38:43;26.00;99.90
2463;DHT22;1243;54.298;10.172;2023-07-20T12:41:11;26.10;99.90
2463;DHT22;1243;54.298;10.172;2023-07-20T12:43:42;26.10;99.90
2463;DHT22;1243;54.298;10.172;2023-07-20T12:46:10;25.20;99.90
2463;DHT22;1243;54.298;10.172;2023-07-20T12:48:38;24.40;99.90
2463;DHT22;1243;54.298;10.172;2023-07-20T12:51:05;23.60;99.90
2463;DHT22;1243;54.298;10.172;2023-07-20T12:53:32;23.20;99.90
2463;DHT22;1243;54.298;10.172;2023-07-20T12:55:58;22.90;99.90
2463;DHT22;1243;54.298;10.172;2023-07-20T12:58:24;22.60;99.90
2463;DHT22;1243;54.298;10.172;2023-07-20T13:00:50;22.40;99.90
2463;DHT22;1243;54.298;10.172;2023-07-20T13:03:16;22.10;99.90
2463;DHT22;1243;54.298;10.172;2023-07-20T13:05:45;21.90;99.90
2463;DHT22;1243;54.298;10.172;2023-07-20T13:08:11;21.30;99.90
2463;DHT22;1243;54.298;10.172;2023-07-20T13:10:37;20.50;99.90
2463;DHT22;1243;54.298;10.172;2023-07-20T13:13:04;20.10;99.90
2463;DHT22;1243;54.298;10.172;2023-07-20T13:15:31;19.90;99.90
2463;DHT22;1243;54.298;10.172;2023-07-20T13:17:57;19.80;99.90
2463;DHT22;1243;54.298;10.172;2023-07-20T13:20:24;19.60;99.90
2463;DHT22;1243;54.298;10.172;2023-07-20T13:22:50;19.70;99.90
2463;DHT22;1243;54.298;10.172;2023-07-20T13:25:16;19.90;99.90
2463;DHT22;1243;54.298;10.172;2023-07-20T13:27:42;20.30;99.90
2463;DHT22;1243;54.298;10.172;2023-07-20T13:30:08;20.80;99.90
2463;DHT22;1243;54.298;10.172;2023-07-20T13:32:35;21.40;99.90
2463;DHT22;1243;54.298;10.172;2023-07-20T13:35:02;21.60;99.90
2463;DHT22;1243;54.298;10.172;2023-07-20T13:37:28;21.50;99.90
2463;DHT22;1243;54.298;10.172;2023-07-20T13:39:54;21.80;99.90
2463;DHT22;1243;54.298;10.172;2023-07-20T13:42:20;21.90;99.90
2463;DHT22;1243;54.298;10.172;2023-07-20T13:44:47;22.00;99.90
2463;DHT22;1243;54.298;10.172;2023-07-20T13:47:14;22.30;99.90
2463;DHT22;1243;54.298;10.172;2023-07-20T13:49:39;22.40;99.90
2463;DHT22;1243;54.298;10.172;2023-07-20T13:52:05;22.60;99.90
2463;DHT22;1243;54.298;10.172;2023-07-20T13:54:31;22.50;99.90
2463;DHT22;1243;54.298;10.172;2023-07-20T13:56:57;22.60;99.90
2463;DHT22;1243;54.298;10.172;2023-07-20T13:59:23;22.40;99.90
2463;DHT22;1243;54.298;10.172;2023-07-20T14:01:49;22.20;99.90
2463;DHT22;1243;54.298;10.172;2023-07-20T14:04:15;22.40;99.90
2463;DHT22;1243;54.298;10.172;2023-07-20T14:06:41;22.60;99.90
2463;DHT22;1243;54.298;10.172;2023-07-20T14:09:07;22.70;99.90
2463;DHT22;1243;54.298;10.172;2023-07-20T14:11:33;22.60;99.90
2463;DHT22;1243;54.298;10.172;2023-07-20T14:13:58;22.50;99.90
2463;DHT22;1243;54.298;10.172;2023-07-20T14:16:25;22.70;99.90
2463;DHT22;1243;54.298;10.172;2023-07-20T14:18:50;22.70;99.90
2463;DHT22;1243;54.298;10.172;2023-07-20T14:21:18;22.60;99.90
2463;DHT22;1243;54.298;10.172;2023-07-20T14:23:48;22.50;99.90
2463;DHT22;1243;54.298;10.172;2023-07-20T14:26:15;22.40;99.90
2463;DHT22;1243;54.298;10.172;2023-07-20T14:28:41;22.20;99.90
2463;DHT22;1243;54.298;10.172;2023-07-20T14:31:07;21.90;99.90
2463;DHT22;1243;54.298;10.172;2023-07-20T14:33:33;22.10;99.90
2463;DHT22;1243;54.298;10.172;2023-07-20T14:35:58;21.80;99.90
2463;DHT22;1243;54.298;10.172;2023-07-20T14:38:27;21.50;99.90
2463;DHT22;1243;54.298;10.172;2023-07-20T14:40:54;21.60;99.90
2463;DHT22;1243;54.298;10.172;2023-07-20T14:43:20;21.90;99.90
2463;DHT22;1243;54.298;10.172;2023-07-20T14:45:46;22.10;99.90
2463;DHT22;1243;54.298;10.172;2023-07-20T14:48:12;22.20;99.90
2463;DHT22;1243;54.298;10.172;2023-07-20T14:50:37;22.30;99.90
2463;DHT22;1243;54.298;10.172;2023-07-20T14:53:03;22.30;99.90
2463;DHT22;1243;54.298;10.172;2023-07-20T14:55:29;22.10;99.90
2463;DHT22;1243;54.298;10.172;2023-07-20T14:57:54;21.70;99.90
2463;DHT22;1243;54.298;10.172;2023-07-20T15:00:20;21.50;99.90
2463;DHT22;1243;54.298;10.172;2023-07-20T15:02:46;21.50;99.90
2463;DHT22;1243;54.298;10.172;2023-07-20T15:05:12;21.30;99.90
2463;DHT22;1243;54.298;10.172;2023-07-20T15:07:45;21.50;99.90
2463;DHT22;1243;54.298;10.172;2023-07-20T15:10:11;21.70;99.90
2463;DHT22;1243;54.298;10.172;2023-07-20T15:12:36;22.30;99.90
2463;DHT22;1243;54.298;10.172;2023-07-20T15:15:06;22.50;99.90
2463;DHT22;1243;54.298;10.172;2023-07-20T15:17:34;22.30;99.90
2463;DHT22;1243;54.298;10.172;2023-07-20T15:20:01;21.90;99.90
2463;DHT22;1243;54.298;10.172;2023-07-20T15:22:30;21.50;99.90
2463;DHT22;1243;54.298;10.172;2023-07-20T15:24:56;21.30;99.90
2463;DHT22;1243;54.298;10.172;2023-07-20T15:27:22;21.20;99.90
2463;DHT22;1243;54.298;10.172;2023-07-20T15:29:49;21.20;99.90
2463;DHT22;1243;54.298;10.172;2023-07-20T15:32:15;21.30;99.90
2463;DHT22;1243;54.298;10.172;2023-07-20T15:34:42;21.40;99.90
2463;DHT22;1243;54.298;10.172;2023-07-20T15:37:09;21.40;99.90
2463;DHT22;1243;54.298;10.172;2023-07-20T15:39:35;21.20;99.90
2463;DHT22;1243;54.298;10.172;2023-07-20T15:42:01;20.90;99.90
2463;DHT22;1243;54.298;10.172;2023-07-20T15:44:27;20.50;99.90
2463;DHT22;1243;54.298;10.172;2023-07-20T15:46:52;20.60;99.90
2463;DHT22;1243;54.298;10.172;2023-07-20T15:49:18;20.70;99.90
2463;DHT22;1243;54.298;10.172;2023-07-20T15:51:44;20.80;99.90
2463;DHT22;1243;54.298;10.172;2023-07-20T15:54:12;20.80;99.90
2463;DHT22;1243;54.298;10.172;2023-07-20T15:56:40;20.60;99.90
2463;DHT22;1243;54.298;10.172;2023-07-20T15:59:07;20.60;99.90
2463;DHT22;1243;54.298;10.172;2023-07-20T16:01:33;20.60;99.90
2463;DHT22;1243;54.298;10.172;2023-07-20T16:03:59;20.50;99.90